createdAt,value
2019-05-07T00:01:34.110Z,8.10
2019-05-07T00:04:01.879Z,8.10
2019-05-07T00:06:26.886Z,8.00
2019-05-07T00:08:52.375Z,8.10
2019-05-07T00:11:17.918Z,8.10
2019-05-07T00:13:44.889Z,8.10
2019-05-07T00:16:10.246Z,8.00
2019-05-07T00:18:35.615Z,8.10
2019-05-07T00:21:03.371Z,8.00
2019-05-07T00:23:28.020Z,8.00
2019-05-07T00:25:53.368Z,8.00
2019-05-07T00:28:18.733Z,8.00
2019-05-07T00:30:44.111Z,8.00
2019-05-07T00:33:09.490Z,8.00
2019-05-07T00:35:42.900Z,8.00
2019-05-07T00:38:12.898Z,8.00
2019-05-07T00:40:53.181Z,8.00
2019-05-07T00:43:22.672Z,8.00
2019-05-07T00:45:57.646Z,8.00
2019-05-07T00:48:23.587Z,8.00
2019-05-07T00:50:52.726Z,8.00
2019-05-07T00:53:18.012Z,8.00
2019-05-07T00:55:43.486Z,8.00
2019-05-07T00:58:08.965Z,7.90
2019-05-07T01:00:34.421Z,7.90
2019-05-07T01:02:59.784Z,7.90
2019-05-07T01:05:25.254Z,7.90
2019-05-07T01:07:52.762Z,7.90
2019-05-07T01:10:17.619Z,7.90
2019-05-07T01:12:42.979Z,7.90
2019-05-07T01:15:08.469Z,7.90
2019-05-07T01:17:33.862Z,7.90
2019-05-07T01:19:59.235Z,7.90
2019-05-07T01:22:24.595Z,7.80
2019-05-07T01:24:52.270Z,7.90
2019-05-07T01:27:17.287Z,7.90
2019-05-07T01:29:43.094Z,7.90
2019-05-07T01:32:19.236Z,7.90
2019-05-07T01:34:55.728Z,7.80
2019-05-07T01:37:23.107Z,7.90
2019-05-07T01:39:48.094Z,7.90
2019-05-07T01:42:13.471Z,7.80
2019-05-07T01:44:38.818Z,7.80
2019-05-07T01:47:04.387Z,7.80
2019-05-07T01:49:29.788Z,7.80
2019-05-07T01:51:55.158Z,7.80
2019-05-07T01:54:23.493Z,7.80
2019-05-07T01:56:47.549Z,7.70
2019-05-07T01:59:12.911Z,7.70
2019-05-07T02:01:38.302Z,7.70
2019-05-07T02:04:13.092Z,7.70
2019-05-07T02:07:02.707Z,7.70
2019-05-07T02:09:47.592Z,7.80
2019-05-07T02:12:22.332Z,7.70
2019-05-07T02:14:47.718Z,7.70
2019-05-07T02:17:13.744Z,7.70
2019-05-07T02:19:39.202Z,7.70
2019-05-07T02:22:04.586Z,7.70
2019-05-07T02:24:29.994Z,7.70
2019-05-07T02:26:55.365Z,7.60
2019-05-07T02:29:22.728Z,7.60
2019-05-07T02:31:47.750Z,7.60
2019-05-07T02:34:14.052Z,7.60
2019-05-07T02:36:43.191Z,7.60
2019-05-07T02:39:23.745Z,7.50
2019-05-07T02:41:47.973Z,7.50
2019-05-07T02:44:14.070Z,7.50
2019-05-07T02:46:52.860Z,7.50
2019-05-07T02:49:32.594Z,7.50
2019-05-07T02:52:05.896Z,7.50
2019-05-07T02:54:53.559Z,7.50
2019-05-07T02:57:17.185Z,7.50
2019-05-07T02:59:44.013Z,7.50
2019-05-07T03:02:09.490Z,7.50
2019-05-07T03:04:34.896Z,7.40
2019-05-07T03:07:03.632Z,7.40
2019-05-07T03:09:27.538Z,7.50
2019-05-07T03:11:53.234Z,7.40
2019-05-07T03:14:18.552Z,7.50
2019-05-07T03:16:48.944Z,7.40
2019-05-07T03:19:13.410Z,7.40
2019-05-07T03:21:55.029Z,7.40
2019-05-07T03:24:26.980Z,7.40
2019-05-07T03:26:53.578Z,7.40
2019-05-07T03:29:23.888Z,7.40
2019-05-07T03:32:06.158Z,7.30
2019-05-07T03:34:37.364Z,7.40
2019-05-07T03:37:06.138Z,7.40
2019-05-07T03:39:33.592Z,7.30
2019-05-07T03:41:57.296Z,7.30
2019-05-07T03:44:53.622Z,7.30
2019-05-07T03:47:28.130Z,7.30
2019-05-07T03:49:54.039Z,7.20
2019-05-07T03:52:19.406Z,7.20
2019-05-07T03:54:44.780Z,7.20
2019-05-07T03:57:29.207Z,7.20
2019-05-07T03:59:54.674Z,7.20
2019-05-07T04:02:23.427Z,7.20
2019-05-07T04:04:47.150Z,7.20
2019-05-07T04:07:13.906Z,7.20
2019-05-07T04:09:39.643Z,7.20
2019-05-07T04:12:05.036Z,7.30
2019-05-07T04:14:34.111Z,7.30
2019-05-07T04:17:13.163Z,7.30
2019-05-07T04:19:24.495Z,7.30
2019-05-07T04:21:53.128Z,7.40
2019-05-07T04:24:24.140Z,7.30
2019-05-07T04:26:56.486Z,7.40
2019-05-07T04:29:23.111Z,7.40
2019-05-07T04:31:48.658Z,7.50
2019-05-07T04:34:39.210Z,7.50
2019-05-07T04:37:04.643Z,7.50
2019-05-07T04:39:30.015Z,7.50
2019-05-07T04:41:55.410Z,7.60
2019-05-07T04:44:23.280Z,7.60
2019-05-07T04:46:48.360Z,7.60
2019-05-07T04:49:14.036Z,7.60
2019-05-07T04:51:52.924Z,7.60
2019-05-07T04:54:18.084Z,7.60
2019-05-07T04:56:43.889Z,7.70
2019-05-07T04:59:09.565Z,7.60
2019-05-07T05:01:38.746Z,7.60
2019-05-07T05:04:21.110Z,7.70
2019-05-07T05:06:32.926Z,7.70
2019-05-07T05:08:58.175Z,7.70
2019-05-07T05:11:24.062Z,7.80
2019-05-07T05:13:49.430Z,7.80
2019-05-07T05:16:24.716Z,7.80
2019-05-07T05:18:51.731Z,7.90
2019-05-07T05:21:24.907Z,8.00
2019-05-07T05:23:58.522Z,8.10
2019-05-07T05:26:23.905Z,8.10
2019-05-07T05:28:49.586Z,8.10
2019-05-07T05:31:14.947Z,8.20
2019-05-07T05:33:41.949Z,8.30
2019-05-07T05:36:07.323Z,8.40
2019-05-07T05:38:33.196Z,8.50
2019-05-07T05:40:58.542Z,8.60
2019-05-07T05:43:33.462Z,8.70
2019-05-07T05:46:02.534Z,8.80
2019-05-07T05:48:27.619Z,8.90
2019-05-07T05:51:16.606Z,9.20
2019-05-07T05:54:02.048Z,9.30
2019-05-07T05:56:36.501Z,9.80
2019-05-07T05:59:27.770Z,9.90
2019-05-07T06:02:11.963Z,9.90
2019-05-07T06:04:59.267Z,9.90
2019-05-07T06:07:32.850Z,10.10
2019-05-07T06:10:29.197Z,10.30
2019-05-07T06:13:15.278Z,10.50
2019-05-07T06:16:05.325Z,10.80
2019-05-07T06:18:47.660Z,10.80
2019-05-07T06:21:24.157Z,11.10
2019-05-07T06:23:53.552Z,11.50
2019-05-07T06:26:19.861Z,11.80
2019-05-07T06:28:45.213Z,12.10
2019-05-07T06:31:12.523Z,12.70
2019-05-07T06:33:37.647Z,13.30
2019-05-07T06:36:03.122Z,13.70
2019-05-07T06:38:31.959Z,14.00
2019-05-07T06:41:15.324Z,14.60
2019-05-07T06:43:49.189Z,15.10
2019-05-07T06:46:14.627Z,15.40
2019-05-07T06:48:43.629Z,15.50
2019-05-07T06:51:07.057Z,15.20
2019-05-07T06:53:33.776Z,15.40
2019-05-07T06:56:02.511Z,15.80
2019-05-07T06:58:32.709Z,16.10
2019-05-07T07:01:36.722Z,16.00
2019-05-07T07:04:22.503Z,16.10
2019-05-07T07:07:27.311Z,16.10
2019-05-07T07:10:04.810Z,15.50
2019-05-07T07:12:33.133Z,15.90
2019-05-07T07:14:58.241Z,16.20
2019-05-07T07:17:23.687Z,15.90
2019-05-07T07:19:49.043Z,15.50
2019-05-07T07:22:14.398Z,15.30
2019-05-07T07:24:39.787Z,15.30
2019-05-07T07:27:05.132Z,14.80
2019-05-07T07:29:32.974Z,14.70
2019-05-07T07:32:02.372Z,14.50
2019-05-07T07:34:33.083Z,14.80
2019-05-07T07:37:10.934Z,14.60
2019-05-07T07:39:33.199Z,14.70
2019-05-07T07:42:02.762Z,14.70
2019-05-07T07:44:27.907Z,15.10
2019-05-07T07:46:53.314Z,15.30
2019-05-07T07:49:18.670Z,15.10
2019-05-07T07:51:45.647Z,15.20
2019-05-07T07:54:13.038Z,14.80
2019-05-07T07:57:06.046Z,14.80
2019-05-07T08:00:08.626Z,14.60
2019-05-07T08:02:37.961Z,14.50
2019-05-07T08:05:03.556Z,14.60
2019-05-07T08:07:28.974Z,14.30
2019-05-07T08:09:54.358Z,14.30
2019-05-07T08:12:21.506Z,14.20
2019-05-07T08:14:46.719Z,14.40
2019-05-07T08:17:13.008Z,14.50
2019-05-07T08:19:39.695Z,14.20
2019-05-07T08:22:05.580Z,14.30
2019-05-07T08:24:32.106Z,14.30
2019-05-07T08:26:57.614Z,14.30
2019-05-07T08:29:23.063Z,14.40
2019-05-07T08:32:07.023Z,14.60
2019-05-07T08:34:42.910Z,14.60
2019-05-07T08:37:08.324Z,14.60
2019-05-07T08:39:33.698Z,14.50
2019-05-07T08:41:59.084Z,14.50
2019-05-07T08:44:28.398Z,14.50
2019-05-07T08:47:18.560Z,14.70
2019-05-07T08:49:55.380Z,14.60
2019-05-07T08:52:22.365Z,14.20
2019-05-07T08:54:47.844Z,14.40
2019-05-07T08:57:13.207Z,14.70
2019-05-07T08:59:38.562Z,14.30
2019-05-07T09:02:05.682Z,14.40
2019-05-07T09:04:32.643Z,14.10
2019-05-07T09:06:58.069Z,14.00
2019-05-07T09:09:25.398Z,14.10
2019-05-07T09:11:51.895Z,14.10
2019-05-07T09:14:17.323Z,14.20
2019-05-07T09:16:42.977Z,14.20
2019-05-07T09:19:08.555Z,14.40
2019-05-07T09:21:35.642Z,14.40
2019-05-07T09:24:02.559Z,14.50
2019-05-07T09:26:35.058Z,14.50
2019-05-07T09:29:18.264Z,14.60
2019-05-07T09:32:03.025Z,14.80
2019-05-07T09:34:32.575Z,14.60
2019-05-07T09:36:59.226Z,14.90
2019-05-07T09:39:24.643Z,15.00
2019-05-07T09:41:52.659Z,15.00
2019-05-07T09:44:17.908Z,15.20
2019-05-07T09:46:46.463Z,15.20
2019-05-07T09:49:11.986Z,15.40
2019-05-07T09:51:37.273Z,15.80
2019-05-07T09:54:02.624Z,16.20
2019-05-07T09:56:28.043Z,16.50
2019-05-07T09:58:53.479Z,16.50
2019-05-07T10:01:18.843Z,16.30
2019-05-07T10:03:44.226Z,16.00
2019-05-07T10:06:09.925Z,16.00
2019-05-07T10:08:35.495Z,16.00
2019-05-07T10:11:02.715Z,16.20
2019-05-07T10:13:35.638Z,16.30
2019-05-07T10:16:01.018Z,16.70
2019-05-07T10:18:26.429Z,16.70
2019-05-07T10:20:53.603Z,17.10
2019-05-07T10:23:23.144Z,17.30
2019-05-07T10:25:53.535Z,17.30
2019-05-07T10:28:19.743Z,17.60
2019-05-07T10:30:45.193Z,17.70
2019-05-07T10:33:12.277Z,18.00
2019-05-07T10:35:37.591Z,18.30
2019-05-07T10:38:02.960Z,18.30
2019-05-07T10:40:29.503Z,18.00
2019-05-07T10:42:55.336Z,18.10
2019-05-07T10:45:36.946Z,18.10
2019-05-07T10:48:27.578Z,17.80
2019-05-07T10:50:54.863Z,17.80
2019-05-07T10:53:20.262Z,17.40
2019-05-07T10:55:45.743Z,17.60
2019-05-07T10:58:11.094Z,17.80
2019-05-07T11:00:36.761Z,18.30
2019-05-07T11:03:02.574Z,18.20
2019-05-07T11:05:29.132Z,18.00
2019-05-07T11:07:54.475Z,18.30
2019-05-07T11:10:21.915Z,18.20
2019-05-07T11:12:47.219Z,18.70
2019-05-07T11:15:12.843Z,18.90
2019-05-07T11:18:12.774Z,18.90
2019-05-07T11:20:47.320Z,19.10
2019-05-07T11:23:06.393Z,19.10
2019-05-07T11:25:33.323Z,19.10
2019-05-07T11:27:58.674Z,18.90
2019-05-07T11:30:24.437Z,18.90
2019-05-07T11:32:52.272Z,18.80
2019-05-07T11:35:17.559Z,18.80
2019-05-07T11:37:44.386Z,19.10
2019-05-07T11:40:10.327Z,19.20
2019-05-07T11:43:02.504Z,19.20
2019-05-07T11:45:33.702Z,19.40
2019-05-07T11:47:59.070Z,19.70
2019-05-07T11:50:35.939Z,19.90
2019-05-07T11:53:07.070Z,19.30
2019-05-07T11:55:32.818Z,19.40
2019-05-07T11:57:58.638Z,19.50
2019-05-07T12:00:53.375Z,19.50
2019-05-07T12:03:18.782Z,19.70
2019-05-07T12:05:44.136Z,20.00
2019-05-07T12:08:10.701Z,20.00
2019-05-07T12:10:36.087Z,19.70
2019-05-07T12:13:02.371Z,19.60
2019-05-07T12:15:27.906Z,19.60
2019-05-07T12:17:53.299Z,19.50
2019-05-07T12:20:18.979Z,19.50
2019-05-07T12:22:47.594Z,19.40
2019-05-07T12:25:13.102Z,19.30
2019-05-07T12:27:38.537Z,19.10
2019-05-07T12:30:04.322Z,19.00
2019-05-07T12:32:42.724Z,19.00
2019-05-07T12:35:12.700Z,19.00
2019-05-07T12:37:38.142Z,18.90
2019-05-07T12:40:04.050Z,18.80
2019-05-07T12:42:29.494Z,18.50
2019-05-07T12:44:54.854Z,18.50
2019-05-07T12:47:22.336Z,18.30
2019-05-07T12:49:47.319Z,18.30
2019-05-07T12:52:22.872Z,18.30
2019-05-07T12:55:07.165Z,18.20
2019-05-07T12:57:32.738Z,18.10
2019-05-07T13:00:17.051Z,17.90
2019-05-07T13:02:46.140Z,17.90
2019-05-07T13:05:12.650Z,17.30
2019-05-07T13:08:02.887Z,17.40
2019-05-07T13:10:28.240Z,17.70
2019-05-07T13:12:53.603Z,17.80
2019-05-07T13:15:26.743Z,18.20
2019-05-07T13:17:46.134Z,18.20
2019-05-07T13:20:12.179Z,18.30
2019-05-07T13:22:38.730Z,18.50
2019-05-07T13:25:04.294Z,18.40
2019-05-07T13:27:31.847Z,18.50
2019-05-07T13:29:57.034Z,18.70
2019-05-07T13:32:23.085Z,18.60
2019-05-07T13:34:48.551Z,18.60
2019-05-07T13:37:19.050Z,18.70
2019-05-07T13:39:52.571Z,19.10
2019-05-07T13:42:56.406Z,19.30
2019-05-07T13:45:37.665Z,19.40
2019-05-07T13:48:09.470Z,19.20
2019-05-07T13:50:36.102Z,19.60
2019-05-07T13:53:01.778Z,19.70
2019-05-07T13:55:27.610Z,19.20
2019-05-07T13:57:52.973Z,18.90
2019-05-07T14:00:26.690Z,18.40
2019-05-07T14:02:54.688Z,18.40
2019-05-07T14:05:19.057Z,18.20
2019-05-07T14:07:44.842Z,18.30
2019-05-07T14:10:12.411Z,18.20
2019-05-07T14:12:37.608Z,18.40
2019-05-07T14:15:04.207Z,18.50
2019-05-07T14:17:29.658Z,18.40
2019-05-07T14:19:55.065Z,18.00
2019-05-07T14:22:22.308Z,17.90
2019-05-07T14:24:47.431Z,18.00
2019-05-07T14:27:12.834Z,18.00
2019-05-07T14:29:38.215Z,18.10
2019-05-07T14:32:12.852Z,18.30
2019-05-07T14:34:56.547Z,18.10
2019-05-07T14:37:28.858Z,17.80
2019-05-07T14:39:54.238Z,17.80
2019-05-07T14:42:29.642Z,17.90
2019-05-07T14:44:55.094Z,17.90
2019-05-07T14:47:22.294Z,17.50
2019-05-07T14:49:49.545Z,17.60
2019-05-07T14:52:28.129Z,17.70
2019-05-07T14:54:42.994Z,17.80
2019-05-07T14:57:08.407Z,17.50
2019-05-07T14:59:33.758Z,17.50
2019-05-07T15:01:59.210Z,17.60
2019-05-07T15:04:24.599Z,17.50
2019-05-07T15:06:51.946Z,17.30
2019-05-07T15:09:17.389Z,17.30
2019-05-07T15:11:42.874Z,17.20
2019-05-07T15:14:08.319Z,17.00
2019-05-07T15:16:34.065Z,16.90
2019-05-07T15:18:59.602Z,16.80
2019-05-07T15:21:24.958Z,16.70
2019-05-07T15:23:52.859Z,16.60
2019-05-07T15:26:18.004Z,16.60
2019-05-07T15:28:45.219Z,16.60
2019-05-07T15:31:16.423Z,16.60
2019-05-07T15:33:41.963Z,16.60
2019-05-07T15:36:07.247Z,16.70
2019-05-07T15:38:33.119Z,16.60
2019-05-07T15:40:58.937Z,16.40
2019-05-07T15:43:25.181Z,16.30
2019-05-07T15:45:52.334Z,16.40
2019-05-07T15:48:17.649Z,16.30
2019-05-07T15:50:43.079Z,16.30
2019-05-07T15:53:14.375Z,16.30
2019-05-07T15:55:41.762Z,16.40
2019-05-07T15:58:07.203Z,16.30
2019-05-07T16:00:33.861Z,16.20
2019-05-07T16:03:05.298Z,16.30
2019-05-07T16:05:31.950Z,16.20
2019-05-07T16:07:57.841Z,16.10
2019-05-07T16:10:23.492Z,16.10
2019-05-07T16:12:49.664Z,16.00
2019-05-07T16:15:15.419Z,16.00
2019-05-07T16:17:44.790Z,15.90
2019-05-07T16:20:12.118Z,15.80
2019-05-07T16:22:43.566Z,15.60
2019-05-07T16:25:09.146Z,15.50
2019-05-07T16:27:42.438Z,15.40
2019-05-07T16:30:08.335Z,15.40
2019-05-07T16:32:33.778Z,15.30
2019-05-07T16:34:59.143Z,15.30
2019-05-07T16:37:24.498Z,15.30
2019-05-07T16:39:49.897Z,15.40
2019-05-07T16:42:15.306Z,15.40
2019-05-07T16:44:41.738Z,15.10
2019-05-07T16:47:07.298Z,15.00
2019-05-07T16:49:32.658Z,14.80
2019-05-07T16:51:58.004Z,14.80
2019-05-07T16:54:23.390Z,14.70
2019-05-07T16:57:28.591Z,14.70
2019-05-07T16:59:54.196Z,14.70
2019-05-07T17:02:24.235Z,14.60
2019-05-07T17:05:06.368Z,14.60
2019-05-07T17:07:34.226Z,14.50
2019-05-07T17:09:59.579Z,14.50
2019-05-07T17:12:26.386Z,14.40
2019-05-07T17:14:51.857Z,14.40
2019-05-07T17:17:17.198Z,14.30
2019-05-07T17:19:43.858Z,14.30
2019-05-07T17:22:09.211Z,14.30
2019-05-07T17:24:34.563Z,14.20
2019-05-07T17:26:59.987Z,14.10
2019-05-07T17:29:25.336Z,14.00
2019-05-07T17:31:52.634Z,13.90
2019-05-07T17:34:17.729Z,13.90
2019-05-07T17:36:43.062Z,13.80
2019-05-07T17:39:09.574Z,13.60
2019-05-07T17:41:36.662Z,13.50
2019-05-07T17:44:02.704Z,13.50
2019-05-07T17:46:28.354Z,13.40
2019-05-07T17:48:53.746Z,13.30
2019-05-07T17:51:38.039Z,13.20
2019-05-07T17:54:04.051Z,13.10
2019-05-07T17:56:29.402Z,13.00
2019-05-07T17:58:54.753Z,12.90
2019-05-07T18:01:24.250Z,12.80
2019-05-07T18:03:51.925Z,12.80
2019-05-07T18:06:16.755Z,12.70
2019-05-07T18:08:42.319Z,12.60
2019-05-07T18:11:20.319Z,12.50
2019-05-07T18:13:34.893Z,12.40
2019-05-07T18:16:13.921Z,12.30
2019-05-07T18:18:39.350Z,12.20
2019-05-07T18:21:05.245Z,12.10
2019-05-07T18:23:32.204Z,12.00
2019-05-07T18:25:58.937Z,11.90
2019-05-07T18:28:25.870Z,11.80
2019-05-07T18:30:51.270Z,11.70
2019-05-07T18:33:28.023Z,11.60
2019-05-07T18:35:53.422Z,11.50
2019-05-07T18:38:18.829Z,11.40
2019-05-07T18:40:44.186Z,11.40
2019-05-07T18:43:09.743Z,11.30
2019-05-07T18:45:35.095Z,11.20
2019-05-07T18:48:02.305Z,11.10
2019-05-07T18:50:27.494Z,11.00
2019-05-07T18:52:52.860Z,10.90
2019-05-07T18:55:18.206Z,10.80
2019-05-07T18:57:43.674Z,10.70
2019-05-07T19:00:13.929Z,10.60
2019-05-07T19:02:39.354Z,10.60
2019-05-07T19:05:04.882Z,10.50
2019-05-07T19:07:32.325Z,10.40
2019-05-07T19:09:57.230Z,10.40
2019-05-07T19:12:25.581Z,10.30
2019-05-07T19:14:51.730Z,10.30
2019-05-07T19:17:17.161Z,10.10
2019-05-07T19:19:42.666Z,10.00
2019-05-07T19:22:08.010Z,9.90
2019-05-07T19:24:44.582Z,9.90
2019-05-07T19:27:02.182Z,9.80
2019-05-07T19:29:42.538Z,9.60
2019-05-07T19:32:08.136Z,9.50
2019-05-07T19:34:33.476Z,9.40
2019-05-07T19:36:58.815Z,9.30
2019-05-07T19:39:24.216Z,9.20
2019-05-07T19:41:49.550Z,9.10
2019-05-07T19:44:14.923Z,9.10
2019-05-07T19:46:40.391Z,9.00
2019-05-07T19:49:07.276Z,8.90
2019-05-07T19:51:33.171Z,8.80
2019-05-07T19:53:58.642Z,8.70
2019-05-07T19:56:25.013Z,8.60
2019-05-07T19:58:52.449Z,8.60
2019-05-07T20:01:22.791Z,8.50
2019-05-07T20:03:48.358Z,8.40
2019-05-07T20:06:13.706Z,8.30
2019-05-07T20:08:39.105Z,8.20
2019-05-07T20:11:19.312Z,8.20
2019-05-07T20:13:44.787Z,8.10
2019-05-07T20:16:13.449Z,8.00
2019-05-07T20:18:39.230Z,7.90
2019-05-07T20:21:06.184Z,7.80
2019-05-07T20:23:32.693Z,7.80
2019-05-07T20:25:58.198Z,7.70
2019-05-07T20:28:23.701Z,7.60
2019-05-07T20:30:49.059Z,7.50
2019-05-07T20:33:14.509Z,7.50
2019-05-07T20:35:41.878Z,7.40
2019-05-07T20:38:06.982Z,7.40
2019-05-07T20:40:32.697Z,7.30
2019-05-07T20:42:58.179Z,7.20
2019-05-07T20:45:23.982Z,7.10
2019-05-07T20:47:49.333Z,7.10
2019-05-07T20:50:14.726Z,7.00
2019-05-07T20:52:41.854Z,6.90
2019-05-07T20:55:30.564Z,6.90
2019-05-07T20:57:51.131Z,6.80
2019-05-07T21:00:24.182Z,6.70
2019-05-07T21:02:52.498Z,6.60
2019-05-07T21:05:17.962Z,6.60
2019-05-07T21:07:43.345Z,6.50
2019-05-07T21:10:08.701Z,6.50
2019-05-07T21:12:34.079Z,6.40
2019-05-07T21:14:59.551Z,6.40
2019-05-07T21:17:24.893Z,6.30
2019-05-07T21:19:50.242Z,6.20
2019-05-07T21:22:15.623Z,6.20
2019-05-07T21:24:42.222Z,6.10
2019-05-07T21:27:07.661Z,6.10
2019-05-07T21:29:33.047Z,6.00
2019-05-07T21:31:58.401Z,6.00
2019-05-07T21:34:23.961Z,5.90
2019-05-07T21:36:49.428Z,5.90
2019-05-07T21:39:14.774Z,5.90
2019-05-07T21:41:42.399Z,5.80
2019-05-07T21:44:07.126Z,5.80
2019-05-07T21:46:33.085Z,5.70
2019-05-07T21:48:59.950Z,5.60
2019-05-07T21:51:26.097Z,5.60
2019-05-07T21:54:03.521Z,5.50
2019-05-07T21:56:36.157Z,5.50
2019-05-07T21:59:04.990Z,5.40
2019-05-07T22:01:33.873Z,5.40
2019-05-07T22:04:01.834Z,5.30
2019-05-07T22:06:26.911Z,5.30
2019-05-07T22:08:54.683Z,5.20
2019-05-07T22:11:19.359Z,5.20
2019-05-07T22:13:44.718Z,5.10
2019-05-07T22:16:10.077Z,5.10
2019-05-07T22:18:35.458Z,5.10
2019-05-07T22:21:02.812Z,5.00
2019-05-07T22:23:27.774Z,5.00
2019-05-07T22:25:53.145Z,4.90
2019-05-07T22:28:21.977Z,4.90
2019-05-07T22:31:06.159Z,4.90
2019-05-07T22:33:59.186Z,4.80
2019-05-07T22:36:23.599Z,4.70
2019-05-07T22:38:52.487Z,4.70
2019-05-07T22:41:22.438Z,4.70
2019-05-07T22:43:49.345Z,4.70
2019-05-07T22:46:14.770Z,4.60
2019-05-07T22:48:41.885Z,4.60
2019-05-07T22:51:07.203Z,4.60
2019-05-07T22:53:32.844Z,4.60
2019-05-07T22:55:58.238Z,4.50
2019-05-07T22:58:32.464Z,4.50
2019-05-07T23:01:02.490Z,4.50
2019-05-07T23:03:27.950Z,4.40
2019-05-07T23:05:56.234Z,4.40
2019-05-07T23:08:22.225Z,4.40
2019-05-07T23:10:47.743Z,4.40
2019-05-07T23:13:13.191Z,4.30
2019-05-07T23:15:38.522Z,4.30
2019-05-07T23:18:04.462Z,4.30
2019-05-07T23:20:31.971Z,4.30
2019-05-07T23:22:57.043Z,4.20
2019-05-07T23:25:24.457Z,4.20
2019-05-07T23:27:49.484Z,4.20
2019-05-07T23:33:07.741Z,4.10
2019-05-07T23:35:33.095Z,4.10
2019-05-07T23:37:58.642Z,4.00
2019-05-07T23:40:55.218Z,4.00
2019-05-07T23:43:22.692Z,3.90
2019-05-07T23:45:47.860Z,3.90
2019-05-07T23:48:13.263Z,3.90
2019-05-07T23:50:38.610Z,3.90
2019-05-07T23:53:03.966Z,3.90
2019-05-07T23:55:31.295Z,3.80
2019-05-07T23:57:56.344Z,3.80
